Time;durP1;ratioP1;P1;durP2;ratioP2;P2;SDS_P1;SDS_P2;PMS_P1;PMS_P2;Temp;Humidity;BMP_temperature;BMP_pressure;BME280_temperature;BME280_humidity;BME280_pressure;Samples;Min_cycle;Max_cycle;Signal;HPM_P1;HPM_P2
2021/03/23 00:00:34;;;;;;;8.52;2.45;;;;;;;23.24;37.43;99932.75;4483544;32;33796;-58
2021/03/23 00:03:05;;;;;;;5.90;1.87;;;;;;;23.23;37.46;99936.53;4483323;32;33422;-55
2021/03/23 00:05:33;;;;;;;10.55;2.33;;;;;;;23.23;37.55;99933.81;4482398;32;35223;-56
2021/03/23 00:08:00;;;;;;;16.05;2.40;;;;;;;23.23;37.62;99939.25;4483214;32;34639;-53
2021/03/23 00:10:29;;;;;;;12.30;2.30;;;;;;;23.22;37.69;99934.84;4483420;32;33476;-54
2021/03/23 00:12:56;;;;;;;5.97;1.90;;;;;;;23.22;37.45;99939.47;4483378;32;33314;-57
2021/03/23 00:15:23;;;;;;;9.13;2.15;;;;;;;23.21;37.33;99937.78;4483450;32;34541;-56
2021/03/23 00:17:50;;;;;;;10.70;1.87;;;;;;;23.21;37.42;99929.62;4483335;32;34755;-53
2021/03/23 00:20:22;;;;;;;9.50;1.80;;;;;;;23.20;37.47;99927.97;4483024;32;34449;-57
2021/03/23 00:22:49;;;;;;;8.77;2.12;;;;;;;23.20;37.49;99933.41;4483302;32;33477;-55
2021/03/23 00:25:16;;;;;;;9.10;2.45;;;;;;;23.18;37.49;99933.66;4483148;32;33756;-52
2021/03/23 00:27:43;;;;;;;10.55;2.25;;;;;;;23.18;37.56;99941.81;4482107;32;33938;-55
2021/03/23 00:30:12;;;;;;;16.33;2.50;;;;;;;23.17;37.52;99942.84;4483024;32;33903;-55
2021/03/23 00:32:39;;;;;;;11.38;2.40;;;;;;;23.14;37.57;99941.41;4482175;32;34413;-53
2021/03/23 00:35:08;;;;;;;9.88;2.45;;;;;;;23.13;37.51;99942.47;4482594;32;33742;-54
2021/03/23 00:37:35;;;;;;;11.45;2.70;;;;;;;23.13;37.57;99944.38;4482964;32;33802;-53
2021/03/23 00:40:04;;;;;;;9.50;2.37;;;;;;;23.11;37.62;99939.13;4468816;32;33755;-54
2021/03/23 00:42:31;;;;;;;5.97;2.05;;;;;;;23.11;37.67;99930.13;4481587;32;33439;-55
2021/03/23 00:44:59;;;;;;;8.60;1.70;;;;;;;23.09;37.67;99932.25;4483000;32;34498;-53
2021/03/23 00:47:26;;;;;;;7.80;2.50;;;;;;;23.08;37.64;99931.41;4482890;32;33865;-52
2021/03/23 00:49:54;;;;;;;6.65;1.87;;;;;;;23.07;37.59;99935.16;4482955;32;34517;-52
2021/03/23 00:52:21;;;;;;;5.70;2.03;;;;;;;23.07;37.61;99937.06;4482972;32;33961;-53
2021/03/23 00:54:52;;;;;;;7.22;2.20;;;;;;;23.06;37.64;99941.69;4467089;32;34614;-50
2021/03/23 00:57:19;;;;;;;10.88;2.10;;;;;;;23.06;37.73;99940.84;4466960;32;33980;-54
2021/03/23 00:59:46;;;;;;;14.02;2.58;;;;;;;23.04;37.69;99946.53;4466956;32;33800;-56
2021/03/23 01:02:13;;;;;;;9.85;1.92;;;;;;;23.05;37.83;99940.03;4467002;32;33475;-56
2021/03/23 01:04:40;;;;;;;8.30;2.22;;;;;;;23.04;37.85;99940.25;4466698;32;33738;-54
2021/03/23 01:07:12;;;;;;;10.68;2.22;;;;;;;23.03;37.97;99944.81;4466978;32;33844;-54
2021/03/23 01:09:39;;;;;;;8.63;2.15;;;;;;;23.02;37.86;99945.88;4471310;32;34292;-55
2021/03/23 01:12:08;;;;;;;9.00;2.37;;;;;;;23.02;37.92;99945.88;4482421;32;34067;-54
2021/03/23 01:14:37;;;;;;;7.10;1.62;;;;;;;23.01;37.85;99949.66;4482457;32;33782;-54
2021/03/23 01:17:05;;;;;;;14.70;3.05;;;;;;;23.01;37.85;99938.78;4483247;32;35009;-57
2021/03/23 01:19:32;;;;;;;10.10;2.08;;;;;;;23.00;37.90;99942.56;4484466;32;33943;-55
2021/03/23 01:21:59;;;;;;;5.80;2.00;;;;;;;23.01;37.85;99951.56;4484872;32;34221;-51
2021/03/23 01:24:34;;;;;;;6.53;1.85;;;;;;;23.00;37.83;99944.47;4484713;32;33775;-54
2021/03/23 01:27:03;;;;;;;8.32;2.05;;;;;;;22.98;37.88;99950.09;4484717;32;33507;-54
2021/03/23 01:29:30;;;;;;;5.45;1.75;;;;;;;22.98;37.91;99952.00;4484779;32;33738;-53
2021/03/23 01:31:57;;;;;;;6.40;1.90;;;;;;;22.97;37.89;99950.34;4484593;32;33396;-54
2021/03/23 01:34:44;;;;;;;5.85;2.35;;;;;;;22.96;37.88;99949.50;4484572;32;33805;-52
2021/03/23 01:37:11;;;;;;;8.98;2.58;;;;;;;22.97;37.97;99950.34;4483462;32;34291;-55
2021/03/23 01:39:39;;;;;;;5.43;2.08;;;;;;;22.95;37.93;99947.84;4484635;32;33838;-56
2021/03/23 01:42:07;;;;;;;7.80;1.98;;;;;;;22.95;37.90;99952.44;4484653;32;33020;-52
2021/03/23 01:44:34;;;;;;;8.20;2.30;;;;;;;22.93;38.03;99949.94;4484500;32;33791;-55
2021/03/23 01:47:01;;;;;;;13.00;2.22;;;;;;;22.93;37.85;99952.66;4484744;32;33952;-57
2021/03/23 01:49:33;;;;;;;12.07;1.92;;;;;;;22.92;37.97;99951.00;4484730;32;34544;-53
2021/03/23 01:52:02;;;;;;;7.32;2.00;;;;;;;22.90;38.02;99956.66;4484430;32;33297;-53
2021/03/23 01:54:31;;;;;;;8.45;2.20;;;;;;;22.91;37.98;99954.78;4469441;32;33840;-52
2021/03/23 01:57:00;;;;;;;7.22;1.90;;;;;;;22.91;37.98;99952.06;4467693;32;34717;-54
2021/03/23 01:59:27;;;;;;;7.60;2.08;;;;;;;22.89;38.08;99943.25;4454823;32;33777;-51
2021/03/23 02:01:56;;;;;;;9.85;2.17;;;;;;;22.89;38.15;99949.53;4464789;32;33240;-55
2021/03/23 02:04:24;;;;;;;4.18;1.73;;;;;;;22.87;38.20;99951.62;4454890;32;33431;-55
2021/03/23 02:06:52;;;;;;;6.90;2.35;;;;;;;22.87;38.02;99957.06;4468922;32;33580;-55
2021/03/23 02:09:22;;;;;;;5.45;1.67;;;;;;;22.87;38.00;99958.94;4467148;32;33742;-54
2021/03/23 02:11:54;;;;;;;8.45;1.85;;;;;;;22.86;38.10;99963.56;4467457;32;34175;-57
2021/03/23 02:14:23;;;;;;;7.75;1.77;;;;;;;22.86;38.01;99966.28;4468741;32;33877;-54
2021/03/23 02:16:50;;;;;;;9.98;1.98;;;;;;;22.85;38.10;99961.06;4454899;32;33709;-57
2021/03/23 02:19:19;;;;;;;5.03;1.62;;;;;;;22.84;38.07;99967.53;4483698;32;33573;-55
2021/03/23 02:21:46;;;;;;;7.40;1.90;;;;;;;22.83;38.18;99963.16;4484367;32;33230;-57
2021/03/23 02:24:14;;;;;;;5.05;1.83;;;;;;;22.82;38.15;99965.03;4484686;32;33756;-54
2021/03/23 02:26:41;;;;;;;8.80;2.40;;;;;;;22.82;38.12;99962.31;4484215;32;33882;-56
2021/03/23 02:29:16;;;;;;;8.07;2.60;;;;;;;22.83;38.20;99961.25;4483709;32;33835;-55
2021/03/23 02:31:48;;;;;;;9.98;2.37;;;;;;;22.81;38.15;99963.37;4481602;32;88508;-56
2021/03/23 02:34:21;;;;;;;7.15;2.00;;;;;;;22.81;38.26;99962.56;4483608;32;33826;-55
2021/03/23 02:36:49;;;;;;;7.62;1.92;;;;;;;22.80;38.14;99956.28;4484592;32;33887;-55
2021/03/23 02:39:19;;;;;;;4.35;1.62;;;;;;;22.80;38.26;99955.41;4484153;32;34530;-55
2021/03/23 02:41:46;;;;;;;11.60;2.00;;;;;;;22.80;38.08;99963.56;4484232;32;33279;-52
2021/03/23 02:44:13;;;;;;;6.95;1.80;;;;;;;22.80;38.16;99967.16;4484228;32;33603;-52
2021/03/23 02:46:40;;;;;;;10.73;1.87;;;;;;;22.80;38.14;99966.31;4484358;32;34635;-56
2021/03/23 02:49:08;;;;;;;5.97;1.60;;;;;;;22.79;38.28;99970.06;4484213;32;33765;-53
2021/03/23 02:51:35;;;;;;;5.90;1.62;;;;;;;22.78;38.30;99969.25;4484155;32;33073;-55
2021/03/23 02:54:02;;;;;;;5.07;1.55;;;;;;;22.79;38.20;99978.25;4484222;32;33787;-55
2021/03/23 02:56:30;;;;;;;8.27;1.90;;;;;;;22.77;38.23;99981.19;4483014;32;33932;-54
2021/03/23 02:58:58;;;;;;;5.40;1.52;;;;;;;22.77;38.27;99988.53;4484059;32;34940;-54
2021/03/23 03:01:25;;;;;;;6.15;1.60;;;;;;;22.76;38.23;99984.97;4483924;32;33614;-55
2021/03/23 03:03:53;;;;;;;7.12;2.10;;;;;;;22.76;38.28;99989.56;4484108;32;33793;-52
2021/03/23 03:06:20;;;;;;;5.30;1.95;;;;;;;22.76;38.20;99997.75;4484121;32;33978;-54
2021/03/23 03:08:47;;;;;;;7.43;2.08;;;;;;;22.75;38.28;99996.03;4483679;32;33868;-52
2021/03/23 03:11:14;;;;;;;4.10;1.60;;;;;;;22.75;38.24;100001.50;4483959;32;33400;-55
2021/03/23 03:13:41;;;;;;;5.12;1.77;;;;;;;22.74;38.34;100006.09;4484339;32;33462;-59
2021/03/23 03:16:09;;;;;;;6.57;2.30;;;;;;;22.73;38.34;100000.88;4483917;32;33797;-54
2021/03/23 03:18:36;;;;;;;5.12;1.80;;;;;;;22.72;38.22;99997.34;4484064;32;33755;-57
2021/03/23 03:21:03;;;;;;;7.00;2.00;;;;;;;22.72;38.24;99997.34;4484017;32;33412;-54
2021/03/23 03:23:31;;;;;;;5.07;1.85;;;;;;;22.72;38.25;99993.78;4483777;32;34562;-56
2021/03/23 03:26:01;;;;;;;7.28;1.80;;;;;;;22.71;38.23;99990.22;4483897;32;35153;-52
2021/03/23 03:28:28;;;;;;;4.50;1.60;;;;;;;22.71;38.23;99994.81;4483903;32;34760;-58
2021/03/23 03:30:56;;;;;;;8.98;2.00;;;;;;;22.70;38.34;99991.25;4484024;32;33380;-53
2021/03/23 03:33:23;;;;;;;6.93;2.15;;;;;;;22.69;38.23;99995.03;4484174;32;34580;-57
2021/03/23 03:35:54;;;;;;;12.00;2.40;;;;;;;22.70;38.29;99987.69;4483625;32;33925;-52
2021/03/23 03:38:22;;;;;;;5.62;1.80;;;;;;;22.70;38.22;99993.16;4483753;32;33874;-56
2021/03/23 03:40:57;;;;;;;8.50;1.90;;;;;;;22.67;38.13;99995.25;4482508;32;33358;-55
2021/03/23 03:43:26;;;;;;;6.62;1.75;;;;;;;22.69;38.29;99999.66;4483579;32;33633;-54
2021/03/23 03:45:53;;;;;;;6.43;1.60;;;;;;;22.68;38.30;100001.53;4483706;32;33855;-55
2021/03/23 03:48:21;;;;;;;6.87;1.60;;;;;;;22.67;38.31;100000.69;4483548;32;34844;-54
2021/03/23 03:50:48;;;;;;;5.45;1.75;;;;;;;22.67;38.33;99999.88;4483651;32;33619;-54
2021/03/23 03:53:15;;;;;;;8.30;1.95;;;;;;;22.67;38.28;99999.88;4483611;32;34625;-51
2021/03/23 03:55:43;;;;;;;7.60;1.60;;;;;;;22.66;38.30;100000.91;4483681;32;35065;-54
2021/03/23 03:58:10;;;;;;;4.97;1.45;;;;;;;22.64;38.32;99994.84;4483808;32;34595;-57
2021/03/23 04:00:37;;;;;;;7.12;1.58;;;;;;;22.65;38.26;99993.78;4483244;32;33383;-55
2021/03/23 04:03:09;;;;;;;9.57;2.17;;;;;;;22.64;38.28;99995.69;4483604;32;33800;-55
2021/03/23 04:05:38;;;;;;;6.25;2.12;;;;;;;22.62;38.30;99995.09;4483154;32;34660;-55
2021/03/23 04:08:07;;;;;;;12.45;1.77;;;;;;;22.63;38.32;100002.19;4483679;32;33792;-57
2021/03/23 04:10:34;;;;;;;3.97;1.58;;;;;;;22.63;38.30;100009.50;4483451;32;33194;-51
2021/03/23 04:13:01;;;;;;;6.75;1.52;;;;;;;22.63;38.33;100010.34;4483091;32;34674;-56
2021/03/23 04:15:34;;;;;;;6.57;1.92;;;;;;;22.62;38.33;100007.84;4483338;32;34855;-53
2021/03/23 04:18:01;;;;;;;3.97;1.55;;;;;;;22.60;38.23;100008.03;4483361;32;33758;-56
2021/03/23 04:20:29;;;;;;;6.28;1.98;;;;;;;22.61;38.29;100009.69;4483144;32;32995;-54
2021/03/23 04:22:56;;;;;;;4.80;1.62;;;;;;;22.60;38.30;100016.19;4482035;32;33660;-49
2021/03/23 04:25:27;;;;;;;4.12;1.52;;;;;;;22.61;38.30;100011.59;4483194;32;33890;-52
2021/03/23 04:27:55;;;;;;;8.20;1.95;;;;;;;22.59;38.37;100014.53;4483073;32;34673;-54
2021/03/23 04:30:22;;;;;;;4.10;1.52;;;;;;;22.60;38.28;100021.62;4483210;32;33291;-54
2021/03/23 04:32:50;;;;;;;5.30;1.67;;;;;;;22.60;38.24;100031.69;4483104;32;33603;-54
2021/03/23 04:35:43;;;;;;;5.50;1.62;;;;;;;22.59;38.23;100030.03;4482912;32;34659;-53
2021/03/23 04:38:12;;;;;;;6.00;1.90;;;;;;;22.61;38.28;100023.31;4474719;32;35389;-50
2021/03/23 04:40:39;;;;;;;8.15;1.60;;;;;;;22.58;38.29;100028.38;4483165;32;33274;-52
2021/03/23 04:43:06;;;;;;;10.02;1.75;;;;;;;22.58;38.30;100021.03;4483361;32;33839;-53
2021/03/23 04:45:33;;;;;;;5.47;1.60;;;;;;;22.58;38.26;100025.62;4482885;32;33859;-54
2021/03/23 04:48:01;;;;;;;4.72;1.65;;;;;;;22.58;38.32;100022.91;4482944;32;33582;-55
2021/03/23 04:50:28;;;;;;;7.53;1.30;;;;;;;22.58;38.33;100029.19;4482878;32;34198;-52
2021/03/23 04:52:55;;;;;;;4.32;1.60;;;;;;;22.56;38.25;100033.16;4482327;32;34020;-55
2021/03/23 04:55:22;;;;;;;7.22;1.92;;;;;;;22.55;38.38;100026.91;4481135;32;35204;-53
2021/03/23 04:57:49;;;;;;;6.78;1.80;;;;;;;22.55;38.30;100034.22;4484956;32;34651;-53
2021/03/23 05:00:17;;;;;;;5.75;1.42;;;;;;;22.55;38.40;100037.78;4484635;32;33876;-55
2021/03/23 05:02:44;;;;;;;5.78;1.55;;;;;;;22.54;38.27;100027.94;4485155;32;33645;-54
2021/03/23 05:05:11;;;;;;;4.37;1.40;;;;;;;22.54;38.41;100032.56;4485104;32;33915;-52
2021/03/23 05:07:39;;;;;;;6.30;2.12;;;;;;;22.53;38.38;100045.31;4484958;32;33534;-52
2021/03/23 05:10:07;;;;;;;6.60;1.80;;;;;;;22.53;38.42;100053.47;4485059;32;33208;-54
2021/03/23 05:12:34;;;;;;;5.15;1.48;;;;;;;22.53;38.39;100041.78;4478573;32;33800;-56
2021/03/23 05:15:01;;;;;;;4.25;1.98;;;;;;;22.53;38.36;100058.91;4469527;32;33906;-52
2021/03/23 05:17:28;;;;;;;5.15;1.98;;;;;;;22.52;38.38;100068.13;4467834;32;33762;-55
2021/03/23 05:19:56;;;;;;;4.37;1.70;;;;;;;22.53;38.43;100071.69;4469146;32;33278;-53
2021/03/23 05:22:23;;;;;;;4.05;1.50;;;;;;;22.51;38.41;100066.44;4469113;32;33826;-52
2021/03/23 05:24:50;;;;;;;6.03;1.70;;;;;;;22.51;38.33;100071.88;4469400;32;33864;-57
2021/03/23 05:27:18;;;;;;;5.68;1.40;;;;;;;22.49;38.29;100065.84;4468956;32;34730;-54
2021/03/23 05:29:46;;;;;;;4.87;1.45;;;;;;;22.50;38.32;100064.78;4469088;32;33219;-53
2021/03/23 05:32:13;;;;;;;6.28;1.70;;;;;;;22.50;38.24;100070.22;4469196;32;34600;-54
2021/03/23 05:34:40;;;;;;;3.75;1.80;;;;;;;22.50;38.35;100059.34;4469189;32;33934;-54
2021/03/23 05:37:07;;;;;;;8.40;1.62;;;;;;;22.50;38.32;100064.78;4469291;32;33834;-58
2021/03/23 05:39:35;;;;;;;6.60;1.60;;;;;;;22.49;38.39;100065.84;4468975;32;33290;-52
2021/03/23 05:42:09;;;;;;;4.65;1.77;;;;;;;22.49;38.39;100063.13;4468932;32;33687;-56
2021/03/23 05:44:45;;;;;;;6.22;1.40;;;;;;;22.49;38.37;100065.00;4455078;32;33578;-57
2021/03/23 05:47:14;;;;;;;7.15;1.77;;;;;;;22.47;38.35;100076.06;4467889;32;35238;-57
2021/03/23 05:49:51;;;;;;;3.03;1.42;;;;;;;22.47;38.43;100084.22;4469019;32;33237;-54
2021/03/23 05:52:36;;;;;;;9.15;1.60;;;;;;;22.48;38.37;100083.19;4455218;32;35003;-55
2021/03/23 05:55:12;;;;;;;6.40;1.75;;;;;;;22.49;38.28;100082.16;4442143;32;34738;-54
2021/03/23 05:57:42;;;;;;;6.90;1.70;;;;;;;22.47;38.48;100080.69;4468906;32;34264;-54
2021/03/23 06:00:30;;;;;;;6.40;1.75;;;;;;;22.45;38.47;100078.19;4467696;32;33395;-52
2021/03/23 06:03:33;;;;;;;7.20;1.67;;;;;;;22.47;38.30;100076.06;4468286;32;34587;-56
2021/03/23 06:06:24;;;;;;;6.10;1.75;;;;;;;22.49;38.52;100071.28;4427920;32;33863;-56
2021/03/23 06:08:51;;;;;;;;;;;;;;;22.46;38.47;100068.13;4468884;32;33720;-57
2021/03/23 06:11:41;;;;;;;6.07;1.70;;;;;;;22.53;38.33;100072.50;4468717;32;33182;-52
2021/03/23 06:14:39;;;;;;;7.22;1.60;;;;;;;22.46;38.35;100071.69;4468658;32;34584;-56
2021/03/23 06:17:28;;;;;;;6.32;1.67;;;;;;;22.44;38.50;100076.50;4454959;32;32716;-53
2021/03/23 06:20:28;;;;;;;5.55;1.70;;;;;;;22.41;38.46;100077.75;4467574;32;34931;-55
2021/03/23 06:23:19;;;;;;;11.57;2.00;;;;;;;22.42;38.59;100084.03;4467602;32;34429;-55
2021/03/23 06:25:52;;;;;;;8.27;1.83;;;;;;;22.41;38.58;100079.66;4468443;32;33836;-53
2021/03/23 06:28:40;;;;;;;6.55;1.60;;;;;;;22.38;38.54;100085.50;4467356;32;33843;-54
2021/03/23 06:31:16;;;;;;;5.35;1.50;;;;;;;22.38;38.57;100086.38;4467246;32;34487;-53
2021/03/23 06:33:43;;;;;;;8.40;1.70;;;;;;;22.38;38.46;100082.78;4468610;32;33300;-57
2021/03/23 06:36:31;;;;;;;8.57;1.90;;;;;;;22.37;38.54;100098.25;4482662;32;33754;-56
2021/03/23 06:38:58;;;;;;;6.10;1.80;;;;;;;22.39;38.48;100088.03;4484341;32;33897;-57
2021/03/23 06:41:26;;;;;;;6.78;1.70;;;;;;;22.37;38.52;100092.81;4484078;32;33816;-56
2021/03/23 06:44:25;;;;;;;5.43;1.48;;;;;;;22.37;38.59;100095.53;4483034;32;33284;-51
2021/03/23 06:46:53;;;;;;;5.90;1.40;;;;;;;22.40;38.50;100095.13;4483662;31;33500;-58
2021/03/23 06:49:32;;;;;;;5.12;1.52;;;;;;;22.38;38.54;100082.78;4482963;32;33974;-52
2021/03/23 06:52:06;;;;;;;5.12;1.62;;;;;;;22.39;38.37;100087.19;4484243;32;35156;-54
2021/03/23 06:54:34;;;;;;;5.35;1.60;;;;;;;22.38;38.50;100078.22;4484242;32;33340;-54
2021/03/23 06:57:05;;;;;;;6.20;1.50;;;;;;;22.37;38.53;100081.13;4484235;32;33543;-54
2021/03/23 06:59:44;;;;;;;4.87;1.58;;;;;;;22.37;38.51;100075.69;4483994;32;34615;-52
2021/03/23 07:02:36;;;;;;;9.63;1.70;;;;;;;22.36;38.57;100084.87;4482915;32;33805;-58
2021/03/23 07:05:25;;;;;;;4.28;1.55;;;;;;;22.39;38.50;100081.75;4477233;32;34247;-55
2021/03/23 07:08:12;;;;;;;4.30;1.92;;;;;;;22.38;38.46;100088.22;4483917;32;33926;-54
2021/03/23 07:10:43;;;;;;;4.15;1.42;;;;;;;22.35;38.60;100092.22;4482866;32;34656;-55
2021/03/23 07:13:26;;;;;;;10.65;2.20;;;;;;;22.34;38.52;100096.00;4483886;32;33722;-53
2021/03/23 07:16:24;;;;;;;8.80;1.80;;;;;;;22.36;38.63;100093.03;4483793;32;33553;-57
2021/03/23 07:18:52;;;;;;;7.80;1.73;;;;;;;22.36;38.59;100090.34;4482985;32;34628;-52
2021/03/23 07:21:22;;;;;;;8.35;2.00;;;;;;;22.35;38.55;100094.09;4482996;32;33997;-58
2021/03/23 07:24:06;;;;;;;6.32;1.75;;;;;;;22.34;38.71;100093.28;4484237;32;34508;-55
2021/03/23 07:26:35;;;;;;;9.30;1.70;;;;;;;22.36;38.63;100093.03;4484001;32;34284;-52
2021/03/23 07:29:11;;;;;;;5.10;1.52;;;;;;;22.33;38.70;100110.59;4482673;32;33772;-55
2021/03/23 07:31:43;;;;;;;6.93;1.90;;;;;;;22.32;38.67;100103.50;4482671;32;33773;-53
2021/03/23 07:34:24;;;;;;;8.38;1.60;;;;;;;22.32;38.68;100105.37;4482040;32;34506;-53
2021/03/23 07:37:42;;;;;;;5.05;1.45;;;;;;;22.32;38.63;100108.09;4467136;32;34672;-56
2021/03/23 07:40:16;;;;;;;7.75;1.67;;;;;;;22.35;38.58;100099.53;4450968;32;34575;-56
2021/03/23 07:43:15;;;;;;;8.80;1.77;;;;;;;22.32;38.55;100106.22;4473452;32;33497;-51
2021/03/23 07:45:59;;;;;;;6.32;1.75;;;;;;;22.32;38.63;100094.50;4479040;32;34504;-54
2021/03/23 07:48:40;;;;;;;4.30;1.67;;;;;;;22.32;38.62;100106.22;4470688;32;33231;-55
2021/03/23 07:51:32;;;;;;;4.82;1.50;;;;;;;22.31;38.59;100096.41;4470269;32;33788;-54
2021/03/23 07:54:28;;;;;;;12.37;2.00;;;;;;;22.31;38.44;100099.13;4482411;32;33914;-57
2021/03/23 07:57:01;;;;;;;5.50;1.42;;;;;;;22.34;38.61;100100.59;4483631;32;33854;-55
2021/03/23 07:59:53;;;;;;;7.90;1.70;;;;;;;22.33;38.44;100096.19;4483382;32;34342;-52
2021/03/23 08:02:54;;;;;;;8.95;1.65;;;;;;;22.33;38.59;100101.63;4483618;32;33870;-54
2021/03/23 08:05:30;;;;;;;7.62;1.75;;;;;;;22.31;38.53;100098.28;4460833;32;34603;-51
2021/03/23 08:08:09;;;;;;;5.35;1.75;;;;;;;22.32;38.49;100092.63;4469282;32;34548;-52
2021/03/23 08:10:42;;;;;;;7.30;1.83;;;;;;;22.31;38.60;100099.13;4482331;32;33187;-52
2021/03/23 08:13:32;;;;;;;5.85;1.73;;;;;;;22.32;38.55;100098.06;4470515;32;34594;-57
2021/03/23 08:16:18;;;;;;;7.62;1.95;;;;;;;22.32;38.54;100089.91;4469192;32;33820;-56
2021/03/23 08:19:02;;;;;;;7.10;1.60;;;;;;;22.33;38.48;100085.31;4483395;32;34852;-54
2021/03/23 08:21:36;;;;;;;7.60;2.03;;;;;;;22.33;38.43;100088.03;4468940;32;33080;-57
2021/03/23 08:24:17;;;;;;;5.07;1.60;;;;;;;22.32;38.49;100080.94;4472128;32;34396;-51
2021/03/23 08:27:05;;;;;;;4.85;1.60;;;;;;;22.33;38.57;100093.47;4482292;32;34658;-55
2021/03/23 08:29:39;;;;;;;5.40;1.75;;;;;;;22.33;38.54;100090.75;4483961;32;34510;-58
2021/03/23 08:32:30;;;;;;;14.48;2.35;;;;;;;22.30;38.54;100086.59;4483826;32;34018;-55
2021/03/23 08:35:15;;;;;;;13.40;2.92;;;;;;;22.30;38.46;100081.16;4480043;32;33784;-51
2021/03/23 08:38:09;;;;;;;16.37;3.10;;;;;;;22.32;38.17;100078.22;4485138;32;34700;-50
2021/03/23 08:41:04;;;;;;;15.07;2.70;;;;;;;22.31;37.32;100082.81;4470990;32;34427;-48
2021/03/23 08:43:40;;;;;;;9.93;2.80;;;;;;;22.35;37.23;100077.78;4464464;32;33160;-50
2021/03/23 08:46:21;;;;;;;9.25;3.15;;;;;;;22.31;36.79;100074.66;4485358;32;33665;-49
2021/03/23 08:49:02;;;;;;;8.48;3.03;;;;;;;22.28;36.07;100075.06;4470737;32;33962;-51
2021/03/23 08:51:30;;;;;;;12.15;3.45;;;;;;;22.26;36.10;100076.34;4484911;32;33870;-54
2021/03/23 08:54:00;;;;;;;8.82;3.25;;;;;;;22.25;36.29;100078.22;4470531;32;33434;-49
2021/03/23 08:56:42;;;;;;;10.57;3.30;;;;;;;22.25;36.38;100070.06;4484507;32;34755;-48
2021/03/23 08:59:31;;;;;;;20.37;3.20;;;;;;;22.30;36.36;100078.44;4484599;32;33863;-50
2021/03/23 09:02:19;;;;;;;15.13;3.28;;;;;;;22.32;36.64;100078.22;4484513;32;33720;-48
2021/03/23 09:04:58;;;;;;;12.35;3.08;;;;;;;22.39;36.75;100079.03;4474044;31;34462;-49
2021/03/23 09:07:28;;;;;;;13.13;2.92;;;;;;;22.51;36.74;100080.03;4483603;32;34668;-48
2021/03/23 09:09:55;;;;;;;13.32;3.22;;;;;;;22.64;36.67;100080.00;4470554;32;34799;-47
2021/03/23 09:12:41;;;;;;;10.82;2.85;;;;;;;22.82;36.55;100083.91;4484586;32;33550;-53
2021/03/23 09:15:10;;;;;;;15.82;2.72;;;;;;;23.03;36.41;100083.63;4483396;32;33944;-52
2021/03/23 09:18:01;;;;;;;9.43;3.05;;;;;;;23.19;36.25;100079.59;4485061;32;34606;-49
2021/03/23 09:20:32;;;;;;;8.68;2.50;;;;;;;23.36;36.09;100075.28;4483622;32;35100;-49
2021/03/23 09:23:16;;;;;;;11.10;3.25;;;;;;;23.48;36.02;100069.97;4484518;32;33750;-49
2021/03/23 09:25:57;;;;;;;18.20;2.72;;;;;;;23.62;35.87;100074.25;4484424;32;33958;-50
2021/03/23 09:31:07;;;;;;;7.87;2.67;;;;;;;23.85;35.78;100059.22;4484468;32;33655;-52
2021/03/23 09:33:51;;;;;;;11.02;2.97;;;;;;;23.98;35.72;100072.75;4484728;32;34752;-46
2021/03/23 09:36:45;;;;;;;9.02;2.75;;;;;;;24.11;35.49;100064.44;4467838;32;33064;-48
2021/03/23 09:39:16;;;;;;;9.65;2.67;;;;;;;24.24;35.36;100063.47;4467685;32;33748;-49
2021/03/23 09:42:23;;;;;;;13.00;2.60;;;;;;;24.32;35.24;100062.34;4469022;32;33821;-52
2021/03/23 09:45:03;;;;;;;10.40;2.53;;;;;;;24.45;35.05;100066.84;4466847;32;33600;-48
2021/03/23 09:47:41;;;;;;;10.80;2.47;;;;;;;24.51;34.95;100069.50;4468892;32;33382;-48
2021/03/23 09:50:27;;;;;;;9.25;2.65;;;;;;;24.54;34.87;100070.94;4467658;32;33934;-49
2021/03/23 09:53:12;;;;;;;8.90;2.60;;;;;;;24.60;34.75;100059.12;4468918;32;33681;-49
2021/03/23 09:55:40;;;;;;;11.82;2.40;;;;;;;24.59;34.71;100049.28;4469099;32;33983;-47
2021/03/23 09:58:13;;;;;;;9.60;3.00;;;;;;;24.58;34.68;100045.72;4478424;32;33861;-46
2021/03/23 10:00:40;;;;;;;12.25;2.35;;;;;;;24.58;34.71;100050.34;4484203;32;33519;-45
2021/03/23 10:03:33;;;;;;;9.15;2.50;;;;;;;24.57;34.63;100041.28;4475151;32;34529;-50
2021/03/23 10:06:07;;;;;;;12.35;2.58;;;;;;;24.58;34.63;100033.97;4472084;32;34876;-50
2021/03/23 10:08:36;;;;;;;10.93;2.80;;;;;;;24.53;34.73;100028.34;4480880;32;33913;-48
2021/03/23 10:11:15;;;;;;;12.25;2.80;;;;;;;24.52;34.83;100032.97;4470161;32;33828;-48
2021/03/23 10:13:55;;;;;;;12.40;2.72;;;;;;;24.49;34.84;100029.88;4468646;32;35449;-48
2021/03/23 10:16:31;;;;;;;13.25;2.53;;;;;;;24.50;34.91;100026.09;4483151;32;33760;-47
2021/03/23 10:19:05;;;;;;;10.73;2.37;;;;;;;24.47;34.92;100010.16;4484163;32;34118;-51
2021/03/23 10:21:32;;;;;;;7.25;2.60;;;;;;;24.43;35.03;100015.25;4483870;32;33802;-46
2021/03/23 10:24:02;;;;;;;12.32;2.47;;;;;;;24.38;35.08;100013.19;4484147;32;33827;-49
2021/03/23 10:26:38;;;;;;;11.20;2.80;;;;;;;24.36;35.21;100015.34;4469624;32;33876;-51
2021/03/23 10:29:24;;;;;;;9.98;2.33;;;;;;;24.36;35.36;100012.59;4484242;32;33290;-51
2021/03/23 10:31:52;;;;;;;10.57;2.42;;;;;;;24.32;35.52;100002.34;4484135;32;33873;-47
2021/03/23 10:34:22;;;;;;;9.60;2.80;;;;;;;24.26;35.66;100006.00;4483866;32;34499;-47
2021/03/23 10:37:00;;;;;;;10.02;2.60;;;;;;;24.23;35.71;99998.25;4484240;32;34645;-45
2021/03/23 10:39:44;;;;;;;7.22;2.60;;;;;;;24.18;35.77;99999.75;4484105;32;34017;-48
2021/03/23 10:42:30;;;;;;;7.80;2.55;;;;;;;24.14;35.88;99992.25;4484057;32;34639;-48
2021/03/23 10:45:16;;;;;;;7.57;2.42;;;;;;;24.10;35.96;99983.69;4484408;32;34701;-47
2021/03/23 10:47:47;;;;;;;12.13;3.05;;;;;;;24.07;35.98;99978.72;4483995;32;34051;-48
2021/03/23 10:50:17;;;;;;;9.00;2.83;;;;;;;24.02;36.18;99992.19;4483426;32;34920;-48
2021/03/23 10:52:44;;;;;;;11.88;2.60;;;;;;;23.99;36.18;99986.34;4484083;32;34524;-49
2021/03/23 10:55:17;;;;;;;8.55;1.83;;;;;;;23.98;36.18;99990.97;4482646;32;33910;-49
2021/03/23 10:57:44;;;;;;;9.20;2.35;;;;;;;23.95;36.28;99982.41;4484199;32;33761;-48
2021/03/23 11:00:34;;;;;;;9.38;2.25;;;;;;;23.93;36.30;99988.09;4483859;32;33316;-64
2021/03/23 11:03:18;;;;;;;15.45;2.80;;;;;;;23.89;36.30;99992.31;4484118;32;34424;-49
2021/03/23 11:05:48;;;;;;;13.48;2.87;;;;;;;23.88;36.50;99986.06;4483824;32;35373;-56
2021/03/23 11:08:16;;;;;;;19.48;3.17;;;;;;;23.85;36.66;99982.94;4484137;32;34443;-52
2021/03/23 11:10:45;;;;;;;15.82;3.10;;;;;;;23.85;36.78;99980.22;4484257;32;32740;-54
2021/03/23 11:13:13;;;;;;;16.17;3.10;;;;;;;23.81;36.84;99973.53;4483842;32;33688;-50
2021/03/23 11:15:45;;;;;;;30.75;3.47;;;;;;;23.79;36.95;99970.22;4484042;32;33939;-52
2021/03/23 11:18:23;;;;;;;19.73;3.33;;;;;;;23.79;36.75;99975.66;4483870;32;33836;-48
2021/03/23 11:20:51;;;;;;;13.43;3.42;;;;;;;23.78;36.96;99982.16;4483832;32;33544;-51
2021/03/23 11:23:25;;;;;;;14.07;2.58;;;;;;;23.72;37.01;99970.25;4483935;32;33413;-49
2021/03/23 11:25:53;;;;;;;19.10;3.87;;;;;;;23.71;37.02;99960.44;4482728;32;33699;-47
2021/03/23 11:28:20;;;;;;;20.62;3.08;;;;;;;23.70;37.02;99952.50;4484001;32;33773;-47
2021/03/23 11:30:47;;;;;;;20.30;4.10;;;;;;;23.69;36.89;99959.84;4482716;32;33379;-48
2021/03/23 11:33:14;;;;;;;19.35;3.58;;;;;;;23.66;37.09;99955.66;4483814;32;33692;-48
2021/03/23 11:35:46;;;;;;;22.05;3.67;;;;;;;23.64;37.02;99948.75;4483735;32;33648;-48
2021/03/23 11:38:13;;;;;;;23.33;3.55;;;;;;;23.62;36.98;99946.22;4483429;32;33920;-53
2021/03/23 11:40:41;;;;;;;19.15;3.25;;;;;;;23.61;36.84;99946.47;4483722;32;34433;-49
2021/03/23 11:43:34;;;;;;;15.20;2.87;;;;;;;23.58;36.82;99944.19;4483760;32;33805;-52
2021/03/23 11:46:11;;;;;;;14.93;3.08;;;;;;;23.57;36.82;99947.97;4470398;32;34667;-55
2021/03/23 11:48:43;;;;;;;16.58;3.42;;;;;;;23.54;36.81;99943.78;4454056;32;33504;-55
2021/03/23 11:51:22;;;;;;;15.50;3.20;;;;;;;23.50;36.81;99937.16;4467965;32;33349;-58
2021/03/23 11:53:49;;;;;;;16.33;3.35;;;;;;;23.48;36.83;99941.13;4471546;32;34570;-60
2021/03/23 11:56:17;;;;;;;17.80;4.53;;;;;;;23.45;36.85;99934.22;4483566;32;34945;-60
2021/03/23 11:58:44;;;;;;;17.77;3.62;;;;;;;23.44;36.86;99932.56;4483694;32;34534;-52